Time;durP1;ratioP1;P1;durP2;ratioP2;P2;SDS_P1;SDS_P2;PMS_P1;PMS_P2;Temp;Humidity;BMP_temperature;BMP_pressure;BME280_temperature;BME280_humidity;BME280_pressure;Samples;Min_cycle;Max_cycle;Signal;HPM_P1;HPM_P2
2023/01/14 00:01:42;;;;;;;4.75;2.10;;;;;;;;;;5066144;28;20056;-76
2023/01/14 00:04:13;;;;;;;3.53;2.78;;;;;;;;;;5066675;28;20055;-75
2023/01/14 00:06:44;;;;;;;3.33;2.28;;;;;;;;;;5066391;28;20057;-75
2023/01/14 00:09:16;;;;;;;3.42;3.05;;;;;;;;;;5049122;28;20048;-75
2023/01/14 00:11:51;;;;;;;7.65;3.22;;;;;;;;;;5067186;28;20534;-76
2023/01/14 00:14:30;;;;;;;5.63;4.30;;;;;;;;;;5066399;28;20056;-75
2023/01/14 00:17:02;;;;;;;6.57;4.28;;;;;;;;;;5066767;28;20051;-75
2023/01/14 00:19:34;;;;;;;7.80;3.58;;;;;;;;;;5066615;28;20059;-75
2023/01/14 00:22:06;;;;;;;4.97;3.72;;;;;;;;;;5066549;28;20592;-75
2023/01/14 00:24:38;;;;;;;5.90;3.22;;;;;;;;;;5066543;28;20049;-75
2023/01/14 00:27:08;;;;;;;4.82;3.03;;;;;;;;;;5065866;28;20067;-75
2023/01/14 00:29:41;;;;;;;5.50;3.72;;;;;;;;;;5066863;28;20037;-74
2023/01/14 00:32:13;;;;;;;6.88;4.47;;;;;;;;;;5046792;28;20530;-75
2023/01/14 00:34:47;;;;;;;6.60;4.00;;;;;;;;;;5047157;28;20048;-75
2023/01/14 00:37:22;;;;;;;9.27;3.35;;;;;;;;;;5061842;28;20341;-75
2023/01/14 00:39:54;;;;;;;8.13;3.67;;;;;;;;;;5066356;28;20075;-76
2023/01/14 00:42:27;;;;;;;5.45;3.30;;;;;;;;;;5047489;28;20055;-76
2023/01/14 00:45:00;;;;;;;5.75;3.95;;;;;;;;;;5066892;28;20043;-76
2023/01/14 00:47:31;;;;;;;4.35;3.90;;;;;;;;;;5066258;28;20048;-76
2023/01/14 00:50:04;;;;;;;5.93;3.25;;;;;;;;;;5047409;28;20056;-75
2023/01/14 00:52:35;;;;;;;4.50;3.33;;;;;;;;;;5065926;28;20055;-75
2023/01/14 00:55:07;;;;;;;4.63;3.53;;;;;;;;;;5047966;28;20044;-75
2023/01/14 00:57:39;;;;;;;3.45;2.88;;;;;;;;;;5047768;28;20041;-75
2023/01/14 01:00:11;;;;;;;10.70;3.85;;;;;;;;;;5066576;28;20406;-76
2023/01/14 01:02:46;;;;;;;11.20;3.42;;;;;;;;;;5064872;28;20052;-75
2023/01/14 01:05:17;;;;;;;11.07;3.38;;;;;;;;;;5064804;28;20048;-81
2023/01/14 01:07:50;;;;;;;4.25;3.10;;;;;;;;;;5063323;28;20045;-76
2023/01/14 01:10:26;;;;;;;5.40;3.25;;;;;;;;;;5063101;28;20583;-75
2023/01/14 01:12:58;;;;;;;8.35;4.65;;;;;;;;;;5063601;28;20045;-75
2023/01/14 01:15:33;;;;;;;7.95;3.67;;;;;;;;;;5076783;28;20519;-75
2023/01/14 01:18:05;;;;;;;;;;;;;;;;;;5063815;28;20049;-76
2023/01/14 01:20:37;;;;;;;5.43;3.20;;;;;;;;;;5064141;28;19920;-75
2023/01/14 01:23:14;;;;;;;13.48;7.65;;;;;;;;;;5046740;28;20059;-75
2023/01/14 01:25:47;;;;;;;16.15;7.78;;;;;;;;;;5046842;28;20053;-75
2023/01/14 01:28:19;;;;;;;13.45;9.60;;;;;;;;;;5048918;28;20083;-76
2023/01/14 01:30:51;;;;;;;10.98;7.45;;;;;;;;;;5052018;28;20636;-76
2023/01/14 01:33:24;;;;;;;24.20;14.90;;;;;;;;;;5069475;28;20056;-74
2023/01/14 01:36:06;;;;;;;13.85;6.15;;;;;;;;;;5069729;28;20047;-76
2023/01/14 01:38:38;;;;;;;7.97;4.70;;;;;;;;;;5050937;28;20057;-75
2023/01/14 01:41:24;;;;;;;6.45;2.50;;;;;;;;;;5069935;28;20048;-75
2023/01/14 01:44:13;;;;;;;5.25;3.05;;;;;;;;;;5069405;28;20059;-75
2023/01/14 01:46:44;;;;;;;4.07;2.55;;;;;;;;;;5050345;28;20049;-74
2023/01/14 01:49:20;;;;;;;7.43;2.80;;;;;;;;;;5049904;28;20044;-76
2023/01/14 01:52:08;;;;;;;9.43;2.30;;;;;;;;;;5070373;28;20048;-75
2023/01/14 01:54:52;;;;;;;3.53;2.92;;;;;;;;;;5051978;28;20406;-75
2023/01/14 01:57:24;;;;;;;4.57;2.33;;;;;;;;;;5068935;28;20053;-75
2023/01/14 02:00:04;;;;;;;4.07;2.92;;;;;;;;;;5068795;28;20045;-75
2023/01/14 02:02:49;;;;;;;9.02;3.00;;;;;;;;;;5070458;28;20041;-76
2023/01/14 02:05:23;;;;;;;3.78;2.78;;;;;;;;;;5068935;28;20044;-77
2023/01/14 02:07:56;;;;;;;5.35;2.88;;;;;;;;;;5050378;28;20403;-76
2023/01/14 02:11:12;;;;;;;6.05;3.20;;;;;;;;;;5068875;28;20040;-76
2023/01/14 02:13:56;;;;;;;5.32;2.58;;;;;;;;;;5050070;28;20063;-75
2023/01/14 02:17:09;;;;;;;4.95;3.40;;;;;;;;;;5069152;28;20059;-76
2023/01/14 02:20:10;;;;;;;7.88;2.78;;;;;;;;;;5069331;28;20048;-75
2023/01/14 02:22:48;;;;;;;3.50;2.72;;;;;;;;;;5035603;28;20048;-75
2023/01/14 02:25:41;;;;;;;7.00;2.58;;;;;;;;;;5068531;28;20053;-76
2023/01/14 02:28:30;;;;;;;5.03;2.47;;;;;;;;;;5068849;28;20083;-75
2023/01/14 02:31:11;;;;;;;3.00;2.35;;;;;;;;;;5050115;28;20506;-77
2023/01/14 02:34:02;;;;;;;2.90;2.65;;;;;;;;;;5083301;28;20537;-75
2023/01/14 02:36:47;;;;;;;4.10;2.55;;;;;;;;;;5069033;28;20382;-76
2023/01/14 02:39:23;;;;;;;7.47;2.85;;;;;;;;;;5048909;28;20438;-76
2023/01/14 02:45:26;;;;;;;6.28;3.30;;;;;;;;;;5067492;28;20423;-76
2023/01/14 02:48:01;;;;;;;3.55;3.25;;;;;;;;;;5038907;28;20098;-76
2023/01/14 02:50:39;;;;;;;5.82;3.15;;;;;;;;;;5050304;28;20057;-76
2023/01/14 02:53:15;;;;;;;5.20;3.45;;;;;;;;;;5049601;28;20515;-75
2023/01/14 02:55:49;;;;;;;5.97;4.00;;;;;;;;;;5049844;28;20071;-76
2023/01/14 02:58:33;;;;;;;5.95;4.10;;;;;;;;;;5049984;28;20052;-76
2023/01/14 03:01:20;;;;;;;9.45;3.70;;;;;;;;;;5067824;28;20056;-76
2023/01/14 03:04:35;;;;;;;11.93;3.15;;;;;;;;;;5048962;28;20060;-76
2023/01/14 03:07:20;;;;;;;5.63;3.80;;;;;;;;;;5049102;28;20074;-75
2023/01/14 03:10:00;;;;;;;6.82;4.45;;;;;;;;;;5049011;28;20053;-75
2023/01/14 03:13:23;;;;;;;6.22;3.53;;;;;;;;;;5049087;28;20057;-75
2023/01/14 03:16:04;;;;;;;4.18;3.78;;;;;;;;;;5020424;28;20417;-75
2023/01/14 03:18:44;;;;;;;11.68;3.75;;;;;;;;;;5082324;28;20053;-75
2023/01/14 03:21:28;;;;;;;8.05;3.35;;;;;;;;;;5068605;28;20056;-75
2023/01/14 03:24:11;;;;;;;5.82;2.80;;;;;;;;;;5067189;28;20041;-75
2023/01/14 03:26:48;;;;;;;9.23;3.58;;;;;;;;;;5049394;28;20064;-76
2023/01/14 03:29:28;;;;;;;6.68;3.40;;;;;;;;;;5049486;28;20060;-75
2023/01/14 03:32:15;;;;;;;4.55;2.95;;;;;;;;;;5049581;28;20056;-75
2023/01/14 03:35:16;;;;;;;4.53;2.60;;;;;;;;;;5083205;28;20052;-75
2023/01/14 03:37:57;;;;;;;6.05;3.05;;;;;;;;;;5048127;28;20052;-75
2023/01/14 03:40:32;;;;;;;4.43;3.13;;;;;;;;;;5067076;28;20044;-76
2023/01/14 03:43:29;;;;;;;10.15;3.13;;;;;;;;;;5067916;28;20052;-76
2023/01/14 03:46:01;;;;;;;6.68;3.58;;;;;;;;;;5067813;28;20407;-76
2023/01/14 03:48:33;;;;;;;4.45;3.75;;;;;;;;;;5067253;28;20048;-74
2023/01/14 03:51:21;;;;;;;6.28;3.70;;;;;;;;;;5066005;28;20044;-75
2023/01/14 03:54:09;;;;;;;9.73;2.70;;;;;;;;;;5050296;28;20048;-75
2023/01/14 03:57:02;;;;;;;3.75;3.15;;;;;;;;;;5067629;28;20410;-75
2023/01/14 04:00:04;;;;;;;5.13;3.30;;;;;;;;;;5068032;28;20040;-74
2023/01/14 04:02:42;;;;;;;3.58;3.10;;;;;;;;;;5065919;28;20072;-76
2023/01/14 04:05:13;;;;;;;5.60;2.80;;;;;;;;;;5067156;28;20402;-74
2023/01/14 04:07:47;;;;;;;6.97;2.85;;;;;;;;;;5067669;28;20041;-74
2023/01/14 04:10:18;;;;;;;19.25;3.80;;;;;;;;;;5067541;28;20048;-75
2023/01/14 04:15:36;;;;;;;8.20;2.90;;;;;;;;;;5066666;28;20041;-75
2023/01/14 04:18:14;;;;;;;6.75;2.88;;;;;;;;;;5066878;28;20040;-75
2023/01/14 04:20:44;;;;;;;5.53;3.45;;;;;;;;;;5067097;28;20052;-74
2023/01/14 04:23:14;;;;;;;6.82;3.40;;;;;;;;;;5066304;28;20514;-75
2023/01/14 04:25:44;;;;;;;5.78;3.65;;;;;;;;;;5066160;28;20052;-75
2023/01/14 04:28:14;;;;;;;6.60;3.20;;;;;;;;;;5065509;28;20475;-76
2023/01/14 04:30:50;;;;;;;6.72;2.83;;;;;;;;;;5066648;28;20075;-75
2023/01/14 04:33:21;;;;;;;6.20;3.60;;;;;;;;;;5048652;28;20049;-75
2023/01/14 04:35:51;;;;;;;5.22;3.22;;;;;;;;;;5066726;28;20045;-75
2023/01/14 04:38:23;;;;;;;9.70;2.95;;;;;;;;;;5065463;28;20044;-74
2023/01/14 04:40:54;;;;;;;5.25;2.60;;;;;;;;;;5066193;28;20059;-76
2023/01/14 04:43:26;;;;;;;7.32;2.75;;;;;;;;;;5066136;28;20044;-76
2023/01/14 04:45:57;;;;;;;10.02;2.97;;;;;;;;;;5066816;28;20081;-75
2023/01/14 04:48:27;;;;;;;4.30;2.72;;;;;;;;;;5066405;28;20049;-75
2023/01/14 04:51:01;;;;;;;6.07;3.38;;;;;;;;;;5066699;28;20052;-75
2023/01/14 04:53:32;;;;;;;8.10;3.40;;;;;;;;;;5066776;28;20044;-75
2023/01/14 04:56:03;;;;;;;6.93;3.67;;;;;;;;;;5047947;28;20426;-75
2023/01/14 04:58:33;;;;;;;8.95;3.47;;;;;;;;;;5067059;28;20044;-74
2023/01/14 05:01:03;;;;;;;5.80;3.08;;;;;;;;;;5065912;28;20051;-76
2023/01/14 05:03:34;;;;;;;6.00;3.72;;;;;;;;;;5066514;28;20051;-75
2023/01/14 05:06:31;;;;;;;8.07;3.15;;;;;;;;;;5066976;28;20044;-76
2023/01/14 05:09:02;;;;;;;9.82;3.88;;;;;;;;;;5065806;28;20491;-75
2023/01/14 05:11:32;;;;;;;11.27;4.03;;;;;;;;;;5048770;28;20059;-75
2023/01/14 05:14:02;;;;;;;7.80;4.00;;;;;;;;;;5066004;28;20044;-74
2023/01/14 05:16:32;;;;;;;8.45;3.60;;;;;;;;;;5065450;28;20048;-75
2023/01/14 05:19:08;;;;;;;4.85;3.40;;;;;;;;;;5065404;28;20048;-75
2023/01/14 05:21:38;;;;;;;5.57;4.00;;;;;;;;;;5065915;28;20048;-75
2023/01/14 05:24:09;;;;;;;4.97;3.50;;;;;;;;;;5065807;28;20040;-74
2023/01/14 05:26:40;;;;;;;9.30;3.47;;;;;;;;;;5066577;28;20064;-75
2023/01/14 05:29:10;;;;;;;10.65;5.05;;;;;;;;;;5066026;28;20052;-74
2023/01/14 05:31:41;;;;;;;6.65;4.70;;;;;;;;;;5065962;28;20055;-75
2023/01/14 05:34:12;;;;;;;8.70;5.20;;;;;;;;;;5065825;28;20056;-75
2023/01/14 05:36:42;;;;;;;7.93;4.75;;;;;;;;;;5047906;28;20044;-75
2023/01/14 05:39:13;;;;;;;13.07;4.30;;;;;;;;;;5047970;28;20057;-76
2023/01/14 05:47:20;;;;;;;6.55;4.03;;;;;;;;;;5065713;28;20033;-75
2023/01/14 05:49:50;;;;;;;4.93;3.00;;;;;;;;;;5066201;28;20044;-75
2023/01/14 05:52:21;;;;;;;8.27;3.92;;;;;;;;;;5065257;28;20041;-75
2023/01/14 05:54:51;;;;;;;7.55;3.80;;;;;;;;;;5065456;28;20048;-75
2023/01/14 05:57:21;;;;;;;8.57;2.95;;;;;;;;;;5065530;28;20063;-76
2023/01/14 05:59:51;;;;;;;12.40;3.55;;;;;;;;;;5065539;28;20045;-76
2023/01/14 06:08:03;;;;;;;5.32;2.83;;;;;;;;;;5064636;28;20040;-75
2023/01/14 06:10:36;;;;;;;5.47;3.50;;;;;;;;;;5065912;28;20406;-75
2023/01/14 06:13:11;;;;;;;8.05;2.85;;;;;;;;;;5065549;28;20049;-76
2023/01/14 06:15:45;;;;;;;6.35;3.92;;;;;;;;;;5069602;28;20044;-76
2023/01/14 06:18:21;;;;;;;6.97;3.88;;;;;;;;;;5069677;28;20040;-75
2023/01/14 06:20:53;;;;;;;6.82;3.67;;;;;;;;;;5069029;28;20041;-74
2023/01/14 06:23:24;;;;;;;12.50;4.20;;;;;;;;;;5068474;28;20044;-75
2023/01/14 06:25:55;;;;;;;9.35;3.15;;;;;;;;;;5069822;28;20055;-75
2023/01/14 06:28:28;;;;;;;4.32;3.20;;;;;;;;;;5046595;28;20056;-75
2023/01/14 06:31:00;;;;;;;3.60;3.15;;;;;;;;;;5048634;28;20053;-75
2023/01/14 06:33:31;;;;;;;6.88;2.75;;;;;;;;;;5049067;28;20037;-74
2023/01/14 06:36:03;;;;;;;4.93;3.20;;;;;;;;;;5048968;28;20053;-75
2023/01/14 06:38:34;;;;;;;6.50;2.88;;;;;;;;;;5048220;28;20068;-75
2023/01/14 06:41:06;;;;;;;5.50;3.20;;;;;;;;;;5049169;28;20049;-75
2023/01/14 06:43:40;;;;;;;4.88;3.53;;;;;;;;;;5049167;28;20049;-75
2023/01/14 06:46:13;;;;;;;6.35;3.13;;;;;;;;;;5048640;28;20045;-76
2023/01/14 06:48:44;;;;;;;8.45;3.20;;;;;;;;;;5048396;28;20053;-75
2023/01/14 06:51:17;;;;;;;6.45;2.70;;;;;;;;;;5049303;28;20048;-74
2023/01/14 06:53:49;;;;;;;8.90;2.90;;;;;;;;;;5048295;28;20052;-74
2023/01/14 06:56:19;;;;;;;6.95;3.13;;;;;;;;;;5048496;28;20056;-75
2023/01/14 06:58:50;;;;;;;5.38;2.55;;;;;;;;;;5048700;28;20052;-74
2023/01/14 07:01:21;;;;;;;7.80;2.67;;;;;;;;;;5048970;28;20063;-75
2023/01/14 07:03:52;;;;;;;4.45;3.30;;;;;;;;;;5048423;28;20586;-75
2023/01/14 07:06:24;;;;;;;7.70;3.30;;;;;;;;;;5048104;28;20053;-76
2023/01/14 07:08:54;;;;;;;3.42;2.80;;;;;;;;;;5048000;28;20049;-75
2023/01/14 07:11:24;;;;;;;7.05;3.38;;;;;;;;;;5048745;28;20055;-76
2023/01/14 07:13:54;;;;;;;5.63;2.70;;;;;;;;;;5048208;28;20470;-75
2023/01/14 07:16:25;;;;;;;9.55;3.35;;;;;;;;;;5047679;28;20503;-75
2023/01/14 07:18:56;;;;;;;5.82;3.72;;;;;;;;;;5047296;28;20044;-76
2023/01/14 07:21:26;;;;;;;7.18;2.63;;;;;;;;;;5048589;28;20052;-75
2023/01/14 07:23:56;;;;;;;5.07;2.58;;;;;;;;;;5047353;28;20056;-74
2023/01/14 07:26:27;;;;;;;3.90;2.72;;;;;;;;;;5047734;28;20049;-75
2023/01/14 07:28:59;;;;;;;4.57;3.70;;;;;;;;;;5062732;28;20060;-75
2023/01/14 07:31:30;;;;;;;7.00;2.38;;;;;;;;;;5068240;28;20062;-75
2023/01/14 07:34:00;;;;;;;9.52;3.03;;;;;;;;;;5068179;28;20048;-75
2023/01/14 07:36:30;;;;;;;6.47;2.72;;;;;;;;;;5067701;28;20052;-76
2023/01/14 07:39:00;;;;;;;8.45;3.50;;;;;;;;;;5067328;28;20044;-75
2023/01/14 07:41:33;;;;;;;3.53;2.60;;;;;;;;;;5067573;28;20036;-74
2023/01/14 07:44:04;;;;;;;3.72;2.85;;;;;;;;;;5067597;28;20055;-75
2023/01/14 07:46:34;;;;;;;4.15;3.17;;;;;;;;;;5067136;28;20063;-75
2023/01/14 07:49:05;;;;;;;5.50;3.17;;;;;;;;;;5067067;28;20570;-75
2023/01/14 07:51:36;;;;;;;4.10;3.10;;;;;;;;;;5067224;28;20044;-75
2023/01/14 07:54:06;;;;;;;5.13;2.85;;;;;;;;;;5049814;28;20079;-75
2023/01/14 07:56:39;;;;;;;8.65;3.30;;;;;;;;;;5048226;28;20418;-74
2023/01/14 07:59:10;;;;;;;9.00;3.50;;;;;;;;;;5066765;28;20048;-75
2023/01/14 08:01:41;;;;;;;5.72;3.50;;;;;;;;;;5067214;28;20418;-75
2023/01/14 08:04:12;;;;;;;5.35;2.95;;;;;;;;;;5066551;28;20475;-74
2023/01/14 08:06:42;;;;;;;6.03;3.08;;;;;;;;;;5066669;28;20609;-74
2023/01/14 08:09:12;;;;;;;4.15;3.33;;;;;;;;;;5066812;28;20060;-75
2023/01/14 08:11:43;;;;;;;5.10;2.70;;;;;;;;;;5067105;28;20048;-75
2023/01/14 08:14:14;;;;;;;5.72;2.90;;;;;;;;;;5067502;28;20049;-75
2023/01/14 08:16:46;;;;;;;6.32;3.55;;;;;;;;;;5066942;28;20048;-77
2023/01/14 08:19:20;;;;;;;8.00;2.92;;;;;;;;;;5067323;28;20044;-75
2023/01/14 08:21:50;;;;;;;4.82;2.70;;;;;;;;;;5067402;28;20043;-75
2023/01/14 08:24:20;;;;;;;4.60;2.30;;;;;;;;;;5066945;28;20426;-75
2023/01/14 08:26:50;;;;;;;3.17;2.67;;;;;;;;;;5066971;28;20063;-74
2023/01/14 08:29:23;;;;;;;4.28;3.10;;;;;;;;;;5067285;28;20053;-75
2023/01/14 08:31:56;;;;;;;4.97;3.00;;;;;;;;;;5067474;28;20048;-75
2023/01/14 08:34:29;;;;;;;4.68;3.13;;;;;;;;;;5067099;28;20053;-75
2023/01/14 08:37:00;;;;;;;5.57;2.85;;;;;;;;;;5066445;28;20044;-74
2023/01/14 08:39:30;;;;;;;5.68;3.30;;;;;;;;;;5067379;28;20044;-76
2023/01/14 08:42:00;;;;;;;3.35;2.53;;;;;;;;;;5066730;28;20044;-75
2023/01/14 08:44:30;;;;;;;5.00;3.20;;;;;;;;;;5066423;28;20703;-76
2023/01/14 08:47:01;;;;;;;6.18;2.80;;;;;;;;;;5067162;28;20040;-75
2023/01/14 08:49:31;;;;;;;5.63;3.00;;;;;;;;;;5067134;28;20044;-76
2023/01/14 08:52:02;;;;;;;5.53;2.58;;;;;;;;;;5067086;28;20052;-76
2023/01/14 08:54:32;;;;;;;6.18;3.15;;;;;;;;;;5067153;28;20049;-76
2023/01/14 08:57:02;;;;;;;4.28;2.70;;;;;;;;;;5066376;28;20043;-76
2023/01/14 08:59:32;;;;;;;8.23;2.75;;;;;;;;;;5066628;28;20071;-74
2023/01/14 09:02:03;;;;;;;7.53;3.00;;;;;;;;;;5066395;28;20055;-75
2023/01/14 09:04:34;;;;;;;7.18;2.78;;;;;;;;;;5066726;28;20044;-75
2023/01/14 09:18:20;;;;;;;8.30;3.58;;;;;;;;;;5067253;28;20044;-75
2023/01/14 09:20:50;;;;;;;7.03;3.40;;;;;;;;;;5067049;28;20045;-75
2023/01/14 09:23:20;;;;;;;4.65;2.78;;;;;;;;;;5066443;28;20071;-75
2023/01/14 09:25:51;;;;;;;6.38;3.50;;;;;;;;;;5066529;28;20045;-76
2023/01/14 09:28:21;;;;;;;7.07;3.70;;;;;;;;;;5065924;28;20052;-74
2023/01/14 09:30:51;;;;;;;5.03;3.70;;;;;;;;;;5066747;28;20475;-75
2023/01/14 09:33:22;;;;;;;4.70;2.95;;;;;;;;;;5065599;28;20059;-75
2023/01/14 09:35:52;;;;;;;10.80;3.13;;;;;;;;;;5065617;28;20055;-75
2023/01/14 09:38:23;;;;;;;4.40;3.70;;;;;;;;;;5066586;28;20051;-75
2023/01/14 09:40:53;;;;;;;9.98;3.92;;;;;;;;;;5066131;28;20049;-75
2023/01/14 09:43:40;;;;;;;6.85;3.33;;;;;;;;;;5066458;28;20461;-75
2023/01/14 09:46:11;;;;;;;5.70;3.47;;;;;;;;;;5066438;28;20537;-74
2023/01/14 09:48:42;;;;;;;4.75;2.92;;;;;;;;;;5067300;28;20056;-75
2023/01/14 09:51:27;;;;;;;4.93;3.00;;;;;;;;;;5070537;28;20048;-75
2023/01/14 09:54:13;;;;;;;8.68;4.45;;;;;;;;;;5070630;28;20053;-75
2023/01/14 09:56:50;;;;;;;5.05;3.08;;;;;;;;;;5069952;28;20051;-76
2023/01/14 09:59:29;;;;;;;7.40;3.75;;;;;;;;;;5069830;28;20049;-75
2023/01/14 10:02:17;;;;;;;6.05;4.13;;;;;;;;;;5070241;28;20401;-75
2023/01/14 10:04:56;;;;;;;4.72;2.95;;;;;;;;;;5069863;28;20048;-76
2023/01/14 10:07:28;;;;;;;6.25;4.05;;;;;;;;;;5069888;28;20059;-75
2023/01/14 10:10:03;;;;;;;4.57;3.58;;;;;;;;;;5069228;28;20406;-75
2023/01/14 10:12:41;;;;;;;9.73;3.78;;;;;;;;;;5070272;28;20037;-75
2023/01/14 10:15:32;;;;;;;7.35;2.95;;;;;;;;;;5069825;28;20045;-75
2023/01/14 10:18:29;;;;;;;7.93;3.30;;;;;;;;;;5069190;28;20048;-75
2023/01/14 10:21:10;;;;;;;4.88;3.63;;;;;;;;;;5070209;28;20063;-75
2023/01/14 10:23:41;;;;;;;6.10;3.30;;;;;;;;;;5069344;28;20055;-74
2023/01/14 10:26:17;;;;;;;11.38;5.00;;;;;;;;;;5069822;28;20044;-75
2023/01/14 10:28:52;;;;;;;4.15;3.08;;;;;;;;;;5069203;28;20053;-76
2023/01/14 10:31:31;;;;;;;5.35;3.75;;;;;;;;;;5069154;28;20517;-76
2023/01/14 10:34:02;;;;;;;5.97;3.30;;;;;;;;;;5069240;28;20518;-76
2023/01/14 10:36:32;;;;;;;7.28;3.13;;;;;;;;;;5068746;28;20044;-74
2023/01/14 10:39:02;;;;;;;6.68;3.00;;;;;;;;;;5065069;28;20737;-75
2023/01/14 10:41:51;;;;;;;6.00;3.08;;;;;;;;;;5068555;28;20056;-75
2023/01/14 10:44:30;;;;;;;4.53;3.20;;;;;;;;;;5069110;28;20048;-75
2023/01/14 10:47:08;;;;;;;3.38;3.08;;;;;;;;;;5069128;28;20044;-76
2023/01/14 10:49:52;;;;;;;4.07;2.80;;;;;;;;;;5068792;28;20052;-76
2023/01/14 10:52:25;;;;;;;;;;;;;;;;;;5069635;28;20051;-75
2023/01/14 10:55:07;;;;;;;7.72;3.55;;;;;;;;;;5068479;28;20287;-75
2023/01/14 10:57:57;;;;;;;3.75;2.63;;;;;;;;;;5068515;28;20068;-75
2023/01/14 11:00:34;;;;;;;9.73;3.40;;;;;;;;;;5068029;28;20044;-75
2023/01/14 11:03:28;;;;;;;4.07;2.70;;;;;;;;;;5068894;28;20070;-75
2023/01/14 11:06:30;;;;;;;5.45;3.38;;;;;;;;;;5068555;28;20111;-75
2023/01/14 11:09:03;;;;;;;3.70;2.97;;;;;;;;;;5067748;28;20052;-75
2023/01/14 11:11:42;;;;;;;5.72;2.90;;;;;;;;;;5068321;28;20060;-75
2023/01/14 11:14:25;;;;;;;4.30;3.03;;;;;;;;;;5068573;28;20052;-75
2023/01/14 11:16:56;;;;;;;11.23;3.13;;;;;;;;;;5068868;28;20067;-75
2023/01/14 11:19:27;;;;;;;5.40;2.60;;;;;;;;;;5068663;28;20048;-76
2023/01/14 11:22:01;;;;;;;5.35;2.70;;;;;;;;;;5067998;28;20040;-74
2023/01/14 11:24:40;;;;;;;3.92;2.30;;;;;;;;;;5068341;28;20049;-75
2023/01/14 11:27:20;;;;;;;4.30;3.55;;;;;;;;;;5068205;28;20529;-76
2023/01/14 11:29:56;;;;;;;3.83;2.22;;;;;;;;;;5028822;28;20496;-74
2023/01/14 11:32:35;;;;;;;4.72;2.65;;;;;;;;;;5027605;28;20053;-77
2023/01/14 11:35:15;;;;;;;3.47;2.67;;;;;;;;;;5028716;28;20064;-75
2023/01/14 11:37:49;;;;;;;5.90;2.42;;;;;;;;;;5027755;28;20127;-77
2023/01/14 11:41:28;;;;;;;3.60;2.50;;;;;;;;;;5028280;28;20049;-76
2023/01/14 11:43:20;;;;;;;3.60;2.38;;;;;;;;;;5027038;28;20409;-76
2023/01/14 11:46:12;;;;;;;2.95;2.58;;;;;;;;;;5027714;28;20054;-75
2023/01/14 11:48:43;;;;;;;2.45;1.90;;;;;;;;;;5027889;28;20045;-75
2023/01/14 11:51:20;;;;;;;2.13;1.77;;;;;;;;;;5028441;28;20046;-76
2023/01/14 11:53:52;;;;;;;3.83;1.60;;;;;;;;;;5027931;28;20500;-75
2023/01/14 11:56:40;;;;;;;4.35;1.75;;;;;;;;;;5027547;28;20061;-77
2023/01/14 11:59:33;;;;;;;2.63;2.20;;;;;;;;;;5027520;28;20053;-75
2023/01/14 12:02:28;;;;;;;2.97;2.40;;;;;;;;;;5027924;28;20058;-77
2023/01/14 12:05:02;;;;;;;3.28;1.80;;;;;;;;;;5028058;28;20049;-76
2023/01/14 12:07:35;;;;;;;3.78;2.03;;;;;;;;;;5028092;28;20049;-76
2023/01/14 12:10:22;;;;;;;4.10;1.98;;;;;;;;;;5027728;28;20049;-77
2023/01/14 12:19:22;;;;;;;4.18;2.20;;;;;;;;;;5027516;28;20480;-77
2023/01/14 12:22:18;;;;;;;2.28;1.80;;;;;;;;;;5022827;28;20057;-80
2023/01/14 12:25:12;;;;;;;5.30;2.33;;;;;;;;;;5027435;28;20056;-76
2023/01/14 12:27:56;;;;;;;3.78;2.00;;;;;;;;;;5032883;28;20087;-75
2023/01/14 12:30:44;;;;;;;4.40;2.50;;;;;;;;;;5066163;28;20045;-75
2023/01/14 12:33:24;;;;;;;3.85;2.65;;;;;;;;;;5066750;28;20051;-77
2023/01/14 12:36:17;;;;;;;3.90;2.40;;;;;;;;;;5066694;28;20040;-78
2023/01/14 12:47:51;;;;;;;3.05;2.75;;;;;;;;;;5066737;28;20403;-76
2023/01/14 12:50:22;;;;;;;3.17;1.92;;;;;;;;;;5066626;28;20040;-76
2023/01/14 12:52:54;;;;;;;5.82;2.40;;;;;;;;;;5066486;28;20051;-76
2023/01/14 12:55:41;;;;;;;4.63;2.17;;;;;;;;;;5067019;28;20055;-75
2023/01/14 12:58:23;;;;;;;3.65;2.40;;;;;;;;;;5047263;28;20048;-76
2023/01/14 13:01:03;;;;;;;6.00;2.22;;;;;;;;;;5066389;28;20049;-76
2023/01/14 13:03:48;;;;;;;4.90;2.97;;;;;;;;;;5067005;28;20045;-75
2023/01/14 13:06:34;;;;;;;3.63;1.85;;;;;;;;;;5066146;28;20055;-76
2023/01/14 13:09:07;;;;;;;6.10;1.83;;;;;;;;;;5066198;28;20051;-76
2023/01/14 13:11:47;;;;;;;3.25;1.92;;;;;;;;;;5066440;28;20048;-76
2023/01/14 13:14:26;;;;;;;3.25;1.80;;;;;;;;;;5066605;28;20107;-76
2023/01/14 13:17:05;;;;;;;3.22;1.90;;;;;;;;;;5065677;28;20037;-76
2023/01/14 13:19:50;;;;;;;5.63;1.90;;;;;;;;;;5066617;28;20056;-76
2023/01/14 13:22:40;;;;;;;4.15;1.70;;;;;;;;;;5067401;28;20048;-76
2023/01/14 13:25:28;;;;;;;5.00;2.80;;;;;;;;;;5071510;28;20048;-76
2023/01/14 13:28:11;;;;;;;3.35;2.35;;;;;;;;;;5072188;28;20063;-75
2023/01/14 13:30:53;;;;;;;2.83;1.83;;;;;;;;;;5072584;28;20093;-76
2023/01/14 13:33:32;;;;;;;5.45;2.50;;;;;;;;;;5072778;28;20415;-75
2023/01/14 13:36:09;;;;;;;7.90;2.08;;;;;;;;;;5054493;28;20052;-75
2023/01/14 13:38:49;;;;;;;4.25;2.80;;;;;;;;;;5072180;28;20491;-76
2023/01/14 13:41:38;;;;;;;8.80;2.75;;;;;;;;;;5072531;28;20047;-76
2023/01/14 13:44:38;;;;;;;3.38;2.15;;;;;;;;;;5073079;28;20048;-76
2023/01/14 13:47:25;;;;;;;;;;;;;;;;;;5055248;28;20052;-77
2023/01/14 13:50:16;;;;;;;4.75;2.53;;;;;;;;;;5072413;28;20314;-76
2023/01/14 13:52:51;;;;;;;2.28;1.58;;;;;;;;;;5072487;28;20496;-75
2023/01/14 13:55:34;;;;;;;6.32;1.83;;;;;;;;;;5073161;28;20056;-76
2023/01/14 13:58:16;;;;;;;1.60;1.50;;;;;;;;;;5069927;28;20048;-78
2023/01/14 14:01:27;;;;;;;4.97;2.13;;;;;;;;;;5072762;28;20519;-76
2023/01/14 14:03:58;;;;;;;4.60;1.88;;;;;;;;;;5054301;28;20053;-76
2023/01/14 14:06:31;;;;;;;4.55;3.20;;;;;;;;;;5073126;28;20044;-77
2023/01/14 14:09:24;;;;;;;4.30;1.90;;;;;;;;;;5072737;28;20522;-75
2023/01/14 14:14:03;;;;;;;2.70;1.83;;;;;;;;;;5073015;28;20049;-76
2023/01/14 14:15:04;;;;;;;3.95;1.70;;;;;;;;;;5072314;28;20067;-75
2023/01/14 14:17:39;;;;;;;4.88;1.90;;;;;;;;;;5072528;28;20506;-76
2023/01/14 14:20:18;;;;;;;3.00;2.30;;;;;;;;;;5073009;28;20036;-75
2023/01/14 14:22:59;;;;;;;2.35;1.80;;;;;;;;;;5072326;28;20049;-76
2023/01/14 14:25:43;;;;;;;5.25;2.10;;;;;;;;;;5072528;28;20502;-76
2023/01/14 14:28:20;;;;;;;3.03;2.00;;;;;;;;;;5072231;28;20479;-76
2023/01/14 14:31:05;;;;;;;3.05;2.10;;;;;;;;;;5072834;28;20044;-76
2023/01/14 14:33:38;;;;;;;1.77;1.63;;;;;;;;;;5070931;28;20518;-75
2023/01/14 14:36:30;;;;;;;2.38;1.67;;;;;;;;;;5068377;28;20051;-75
2023/01/14 14:39:03;;;;;;;1.55;1.25;;;;;;;;;;5069021;28;20541;-76
2023/01/14 14:41:43;;;;;;;3.85;2.20;;;;;;;;;;5069277;28;20412;-75
2023/01/14 14:44:24;;;;;;;2.15;1.60;;;;;;;;;;5069166;28;20044;-76
2023/01/14 14:46:54;;;;;;;3.70;1.45;;;;;;;;;;5068922;28;20048;-75
2023/01/14 14:49:30;;;;;;;2.38;1.45;;;;;;;;;;5069143;28;20052;-76
2023/01/14 14:52:16;;;;;;;7.30;2.88;;;;;;;;;;5050201;28;20063;-76
2023/01/14 14:55:05;;;;;;;2.63;2.20;;;;;;;;;;5068273;28;20705;-75
2023/01/14 14:57:37;;;;;;;1.80;1.38;;;;;;;;;;5068706;28;20102;-76
2023/01/14 15:00:22;;;;;;;3.28;1.40;;;;;;;;;;5068949;28;20051;-75
2023/01/14 15:02:58;;;;;;;3.75;2.00;;;;;;;;;;5069019;28;20083;-76
2023/01/14 15:05:32;;;;;;;2.45;1.65;;;;;;;;;;5067462;28;20048;-77
2023/01/14 15:08:08;;;;;;;3.13;1.50;;;;;;;;;;5068333;28;20053;-77
2023/01/14 15:10:42;;;;;;;1.77;1.42;;;;;;;;;;5068784;28;20071;-77
2023/01/14 15:13:28;;;;;;;1.50;1.38;;;;;;;;;;5068485;28;20048;-76
2023/01/14 15:16:04;;;;;;;3.30;1.20;;;;;;;;;;5068730;28;20048;-77
2023/01/14 15:18:48;;;;;;;4.43;1.25;;;;;;;;;;5068301;28;20060;-77
2023/01/14 15:21:43;;;;;;;1.80;1.50;;;;;;;;;;5050996;28;20045;-77
2023/01/14 15:24:21;;;;;;;2.80;1.30;;;;;;;;;;5068263;28;20051;-76
2023/01/14 15:26:57;;;;;;;1.23;1.10;;;;;;;;;;5049759;28;20048;-75
2023/01/14 15:29:34;;;;;;;2.15;1.60;;;;;;;;;;5068084;28;20076;-76
2023/01/14 15:32:27;;;;;;;2.13;1.40;;;;;;;;;;5049745;28;20415;-77
2023/01/14 15:35:30;;;;;;;2.03;1.02;;;;;;;;;;5049724;28;20048;-76
2023/01/14 15:38:12;;;;;;;1.00;0.90;;;;;;;;;;5044372;28;20065;-77
2023/01/14 15:40:46;;;;;;;2.28;0.93;;;;;;;;;;5069436;28;20048;-77
2023/01/14 15:43:29;;;;;;;0.98;0.88;;;;;;;;;;5069357;28;20044;-76
2023/01/14 15:46:16;;;;;;;1.00;0.90;;;;;;;;;;5067089;28;20052;-74
2023/01/14 15:48:55;;;;;;;;;;;;;;;;;;5068548;28;20056;-75
2023/01/14 15:51:36;;;;;;;;;;;;;;;;;;5068324;28;19924;-77
2023/01/14 15:54:35;;;;;;;3.88;1.00;;;;;;;;;;5067663;28;19925;-76
2023/01/14 15:57:14;;;;;;;;;;;;;;;;;;5068201;28;20055;-74
2023/01/14 16:00:10;;;;;;;1.75;1.27;;;;;;;;;;5066968;28;19924;-75
2023/01/14 16:02:41;;;;;;;2.22;1.10;;;;;;;;;;5067483;28;20055;-75
2023/01/14 16:05:26;;;;;;;1.70;1.13;;;;;;;;;;5068037;28;20044;-78
2023/01/14 16:08:00;;;;;;;2.03;1.20;;;;;;;;;;5049255;28;20059;-75
2023/01/14 16:10:32;;;;;;;2.78;1.15;;;;;;;;;;5066913;28;20052;-77
2023/01/14 16:13:02;;;;;;;1.25;1.00;;;;;;;;;;5067827;28;20045;-78
2023/01/14 16:15:33;;;;;;;1.90;0.90;;;;;;;;;;5068359;28;20079;-76
2023/01/14 16:18:14;;;;;;;2.20;1.10;;;;;;;;;;5068224;28;20507;-75
2023/01/14 16:20:45;;;;;;;0.85;0.73;;;;;;;;;;5066675;28;20059;-76
2023/01/14 16:23:15;;;;;;;0.90;0.90;;;;;;;;;;5066319;28;20048;-78
2023/01/14 16:25:46;;;;;;;2.03;0.98;;;;;;;;;;5048179;28;20112;-75
2023/01/14 16:28:16;;;;;;;2.35;1.40;;;;;;;;;;5048604;28;20060;-75